Time;durP1;ratioP1;P1;durP2;ratioP2;P2;SDS_P1;SDS_P2;PMS_P1;PMS_P2;Temp;Humidity;BMP_temperature;BMP_pressure;BME280_temperature;BME280_humidity;BME280_pressure;Samples;Min_cycle;Max_cycle;Signal;HPM_P1;HPM_P2
2021/08/02 09:03:17;;;;;;;3.38;3.08;;;28.70;25.10;;;;;;5027704;28;20224;-87
2021/08/02 09:05:44;;;;;;;3.33;3.00;;;31.10;18.80;;;;;;5016562;28;20661;-87
2021/08/02 09:08:13;;;;;;;3.00;2.70;;;31.70;18.30;;;;;;5023018;28;20242;-85
2021/08/02 09:10:41;;;;;;;3.38;3.08;;;32.20;17.70;;;;;;5028811;28;20198;-87
2021/08/02 09:13:08;;;;;;;3.28;2.97;;;31.80;17.50;;;;;;5028556;28;20682;-85
2021/08/02 09:15:37;;;;;;;3.50;3.20;;;31.30;18.10;;;;;;5027495;28;20209;-85
2021/08/02 09:18:06;;;;;;;3.28;2.88;;;30.00;20.00;;;;;;5030033;28;20230;-84
2021/08/02 09:20:35;;;;;;;4.55;2.80;;;29.70;20.40;;;;;;5022059;28;20348;-85
2021/08/02 09:23:12;;;;;;;3.10;2.80;;;29.60;19.40;;;;;;5035324;28;20249;-85
2021/08/02 09:25:47;;;;;;;3.65;3.00;;;30.20;20.50;;;;;;5011682;28;20194;-87
2021/08/02 09:28:16;;;;;;;3.47;3.17;;;30.60;19.30;;;;;;5026167;28;20303;-86
2021/08/02 09:30:57;;;;;;;3.42;3.13;;;32.30;17.70;;;;;;5029625;28;20672;-86
2021/08/02 09:33:25;;;;;;;4.22;3.92;;;33.60;15.30;;;;;;5032710;28;20218;-84
2021/08/02 09:35:53;;;;;;;4.82;3.70;;;33.90;15.70;;;;;;5043141;28;20198;-84
2021/08/02 09:38:24;;;;;;;4.25;3.40;;;33.50;14.70;;;;;;5057510;28;20224;-86
2021/08/02 09:40:52;;;;;;;3.75;3.30;;;32.20;17.80;;;;;;5043077;28;20186;-84
2021/08/02 09:43:20;;;;;;;5.35;3.45;;;31.20;17.20;;;;;;5042148;28;20234;-84
2021/08/02 09:45:49;;;;;;;4.85;3.03;;;30.20;19.10;;;;;;5043932;28;20206;-85
2021/08/02 09:48:17;;;;;;;4.78;2.92;;;29.40;21.00;;;;;;5021662;28;20227;-85
2021/08/02 09:50:45;;;;;;;4.60;3.05;;;28.40;22.70;;;;;;5063188;28;20193;-83
2021/08/02 09:53:16;;;;;;;3.50;3.20;;;26.90;25.70;;;;;;5048901;28;20237;-87
2021/08/02 09:55:44;;;;;;;2.65;2.42;;;26.40;27.70;;;;;;5023572;28;20194;-85
2021/08/02 09:58:14;;;;;;;3.75;2.70;;;25.90;29.00;;;;;;5037186;28;20610;-86
2021/08/02 10:00:47;;;;;;;3.00;2.38;;;25.10;30.30;;;;;;5039892;28;20281;-83
2021/08/02 10:03:15;;;;;;;3.75;2.85;;;24.60;31.10;;;;;;5044829;28;20230;-83
2021/08/02 10:05:49;;;;;;;3.30;2.85;;;24.80;31.00;;;;;;5044746;28;20675;-85
2021/08/02 10:08:18;;;;;;;4.10;2.60;;;26.00;29.10;;;;;;5042665;28;20283;-84
2021/08/02 10:10:45;;;;;;;3.55;3.25;;;27.50;25.40;;;;;;5049045;28;20197;-85
2021/08/02 10:13:21;;;;;;;4.10;2.72;;;28.50;21.80;;;;;;5037421;28;20221;-91
2021/08/02 10:15:52;;;;;;;3.25;2.88;;;30.20;20.40;;;;;;5048128;28;20201;-86
2021/08/02 10:18:20;;;;;;;4.97;3.40;;;31.10;19.00;;;;;;5039061;28;20226;-88
2021/08/02 10:20:50;;;;;;;3.60;3.30;;;32.10;17.60;;;;;;5038500;28;20197;-85
2021/08/02 10:23:25;;;;;;;3.10;2.90;;;32.60;17.90;;;;;;5043363;28;20234;-85
2021/08/02 10:25:52;;;;;;;3.78;3.30;;;34.30;15.50;;;;;;5035767;28;20191;-85
2021/08/02 10:28:20;;;;;;;6.20;3.50;;;34.40;13.50;;;;;;5028199;28;20227;-85
2021/08/02 10:30:49;;;;;;;4.20;3.53;;;35.20;13.40;;;;;;5027276;28;20234;-85
2021/08/02 10:33:16;;;;;;;3.40;3.20;;;34.40;12.40;;;;;;5036529;28;20238;-85
2021/08/02 10:35:45;;;;;;;3.42;3.13;;;33.40;14.60;;;;;;5038019;28;20202;-86
2021/08/02 10:38:13;;;;;;;4.15;3.60;;;31.80;17.60;;;;;;5039977;28;20230;-89
2021/08/02 10:40:47;;;;;;;3.42;3.13;;;29.50;18.80;;;;;;5033834;28;20243;-85
2021/08/02 10:43:14;;;;;;;4.18;2.70;;;28.20;23.00;;;;;;5054248;28;20235;-84
2021/08/02 10:45:47;;;;;;;2.72;2.35;;;27.10;23.90;;;;;;5042902;28;20687;-85
2021/08/02 10:53:19;;;;;;;3.47;2.40;;;24.10;31.20;;;;;;5037079;28;20222;-81
2021/08/02 10:55:49;;;;;;;3.80;2.20;;;23.50;35.00;;;;;;5039354;28;20209;-85
2021/08/02 10:58:51;;;;;;;5.68;2.90;;;22.90;35.40;;;;;;5037031;28;20693;-85
2021/08/02 11:01:46;;;;;;;5.43;2.70;;;22.60;38.50;;;;;;5039370;28;20194;-85
2021/08/02 11:32:23;;;;;;;4.82;2.70;;;23.10;44.30;;;;;;5040712;28;20182;-85
2021/08/02 11:42:34;;;;;;;4.93;2.80;;;24.00;33.80;;;;;;5043467;28;20209;-84
